sensor_id;sensor_type;location;lat;lon;timestamp;pressure;altitude;pressure_sealevel;temperature;humidity
16255;BME280;8235;52.198;9.904;2023-12-14T00:00:51;99919.78;;;4.84;100.00
16255;BME280;8235;52.198;9.904;2023-12-14T00:03:18;99930.53;;;4.81;100.00
16255;BME280;8235;52.198;9.904;2023-12-14T00:05:44;99937.66;;;4.79;100.00
16255;BME280;8235;52.198;9.904;2023-12-14T00:08:12;99932.63;;;4.75;100.00
16255;BME280;8235;52.198;9.904;2023-12-14T00:10:38;99938.88;;;4.72;100.00
16255;BME280;8235;52.198;9.904;2023-12-14T00:13:05;99944.38;;;4.68;100.00
16255;BME280;8235;52.198;9.904;2023-12-14T00:15:33;99949.84;;;4.65;100.00
16255;BME280;8235;52.198;9.904;2023-12-14T00:17:59;99947.28;;;4.63;100.00
16255;BME280;8235;52.198;9.904;2023-12-14T00:20:25;99953.50;;;4.62;100.00
16255;BME280;8235;52.198;9.904;2023-12-14T00:22:52;99961.63;;;4.58;100.00
16255;BME280;8235;52.198;9.904;2023-12-14T00:25:20;99960.84;;;4.56;100.00
16255;BME280;8235;52.198;9.904;2023-12-14T00:27:46;99967.97;;;4.53;100.00
16255;BME280;8235;52.198;9.904;2023-12-14T00:30:13;99974.16;;;4.52;100.00
16255;BME280;8235;52.198;9.904;2023-12-14T00:32:40;99968.19;;;4.49;100.00
16255;BME280;8235;52.198;9.904;2023-12-14T00:35:07;99984.09;;;4.47;100.00
16255;BME280;8235;52.198;9.904;2023-12-14T00:37:33;99986.88;;;4.44;100.00
16255;BME280;8235;52.198;9.904;2023-12-14T00:40:00;99995.88;;;4.40;100.00
16255;BME280;8235;52.198;9.904;2023-12-14T00:42:27;99989.75;;;4.40;100.00
16255;BME280;8235;52.198;9.904;2023-12-14T00:44:54;99995.16;;;4.37;100.00
16255;BME280;8235;52.198;9.904;2023-12-14T00:47:20;99999.72;;;4.33;100.00
16255;BME280;8235;52.198;9.904;2023-12-14T00:49:47;100002.44;;;4.32;100.00
16255;BME280;8235;52.198;9.904;2023-12-14T00:52:13;100004.19;;;4.31;100.00
16255;BME280;8235;52.198;9.904;2023-12-14T00:54:40;100014.00;;;4.29;100.00
16255;BME280;8235;52.198;9.904;2023-12-14T00:57:06;100021.91;;;4.29;100.00
16255;BME280;8235;52.198;9.904;2023-12-14T00:59:34;100025.41;;;4.30;100.00
16255;BME280;8235;52.198;9.904;2023-12-14T01:02:00;100032.53;;;4.28;100.00
16255;BME280;8235;52.198;9.904;2023-12-14T01:04:27;100032.66;;;4.25;100.00
16255;BME280;8235;52.198;9.904;2023-12-14T01:06:53;100037.22;;;4.21;100.00
16255;BME280;8235;52.198;9.904;2023-12-14T01:09:20;100039.06;;;4.19;100.00
16255;BME280;8235;52.198;9.904;2023-12-14T01:11:46;100041.75;;;4.17;100.00
16255;BME280;8235;52.198;9.904;2023-12-14T01:14:13;100052.31;;;4.17;100.00
16255;BME280;8235;52.198;9.904;2023-12-14T01:16:41;100056.72;;;4.17;100.00
16255;BME280;8235;52.198;9.904;2023-12-14T01:19:07;100066.41;;;4.16;100.00
16255;BME280;8235;52.198;9.904;2023-12-14T01:21:33;100063.00;;;4.14;100.00
16255;BME280;8235;52.198;9.904;2023-12-14T01:23:59;100085.78;;;4.15;100.00
16255;BME280;8235;52.198;9.904;2023-12-14T01:26:26;100080.50;;;4.15;100.00
16255;BME280;8235;52.198;9.904;2023-12-14T01:28:53;100078.88;;;4.13;100.00
16255;BME280;8235;52.198;9.904;2023-12-14T01:31:19;100081.44;;;4.14;100.00
16255;BME280;8235;52.198;9.904;2023-12-14T01:33:49;100082.34;;;4.13;100.00
16255;BME280;8235;52.198;9.904;2023-12-14T01:36:20;100087.63;;;4.13;100.00
16255;BME280;8235;52.198;9.904;2023-12-14T01:38:46;100085.84;;;4.14;100.00
16255;BME280;8235;52.198;9.904;2023-12-14T01:41:13;100100.66;;;4.16;100.00
16255;BME280;8235;52.198;9.904;2023-12-14T01:43:39;100108.66;;;4.15;100.00
16255;BME280;8235;52.198;9.904;2023-12-14T01:46:06;100098.16;;;4.13;100.00
16255;BME280;8235;52.198;9.904;2023-12-14T01:48:32;100110.50;;;4.13;100.00
16255;BME280;8235;52.198;9.904;2023-12-14T01:51:03;100104.38;;;4.12;100.00
16255;BME280;8235;52.198;9.904;2023-12-14T01:53:33;100107.16;;;4.09;100.00
16255;BME280;8235;52.198;9.904;2023-12-14T01:55:59;100109.16;;;4.04;100.00
16255;BME280;8235;52.198;9.904;2023-12-14T01:58:26;100105.66;;;4.04;100.00
16255;BME280;8235;52.198;9.904;2023-12-14T02:00:56;100111.91;;;4.01;100.00
16255;BME280;8235;52.198;9.904;2023-12-14T02:03:27;100117.19;;;4.01;100.00
16255;BME280;8235;52.198;9.904;2023-12-14T02:05:53;100127.06;;;3.96;100.00
16255;BME280;8235;52.198;9.904;2023-12-14T02:08:21;100127.22;;;3.93;100.00
16255;BME280;8235;52.198;9.904;2023-12-14T02:10:48;100146.59;;;3.92;100.00
16255;BME280;8235;52.198;9.904;2023-12-14T02:13:14;100145.78;;;3.90;100.00
16255;BME280;8235;52.198;9.904;2023-12-14T02:15:41;100152.97;;;3.87;100.00
16255;BME280;8235;52.198;9.904;2023-12-14T02:18:08;100151.19;;;3.87;100.00
16255;BME280;8235;52.198;9.904;2023-12-14T02:20:34;100151.13;;;3.89;100.00
16255;BME280;8235;52.198;9.904;2023-12-14T02:23:02;100160.75;;;3.90;100.00
16255;BME280;8235;52.198;9.904;2023-12-14T02:25:28;100166.00;;;3.90;100.00
16255;BME280;8235;52.198;9.904;2023-12-14T02:27:55;100174.84;;;3.89;100.00
16255;BME280;8235;52.198;9.904;2023-12-14T02:30:21;100170.56;;;3.86;100.00
16255;BME280;8235;52.198;9.904;2023-12-14T02:32:48;100171.47;;;3.85;100.00
16255;BME280;8235;52.198;9.904;2023-12-14T02:35:14;100175.16;;;3.81;100.00
16255;BME280;8235;52.198;9.904;2023-12-14T02:37:43;100179.50;;;3.82;100.00
16255;BME280;8235;52.198;9.904;2023-12-14T02:40:12;100168.97;;;3.82;100.00
16255;BME280;8235;52.198;9.904;2023-12-14T02:42:39;100176.75;;;3.85;100.00
16255;BME280;8235;52.198;9.904;2023-12-14T02:45:07;100176.75;;;3.85;100.00
16255;BME280;8235;52.198;9.904;2023-12-14T02:47:34;100179.44;;;3.83;100.00
16255;BME280;8235;52.198;9.904;2023-12-14T02:50:01;100180.41;;;3.81;100.00
16255;BME280;8235;52.198;9.904;2023-12-14T02:52:27;100187.53;;;3.79;100.00
16255;BME280;8235;52.198;9.904;2023-12-14T02:54:54;100190.16;;;3.79;100.00
16255;BME280;8235;52.198;9.904;2023-12-14T02:57:21;100192.81;;;3.79;100.00
16255;BME280;8235;52.198;9.904;2023-12-14T02:59:48;100203.22;;;3.82;100.00
16255;BME280;8235;52.198;9.904;2023-12-14T03:02:14;100204.94;;;3.83;100.00
16255;BME280;8235;52.198;9.904;2023-12-14T03:04:41;100210.19;;;3.83;100.00
16255;BME280;8235;52.198;9.904;2023-12-14T03:07:07;100205.00;;;3.81;100.00
16255;BME280;8235;52.198;9.904;2023-12-14T03:09:34;100207.69;;;3.80;100.00
16255;BME280;8235;52.198;9.904;2023-12-14T03:12:01;100206.88;;;3.78;100.00
16255;BME280;8235;52.198;9.904;2023-12-14T03:14:32;100210.44;;;3.77;100.00
16255;BME280;8235;52.198;9.904;2023-12-14T03:16:59;100218.44;;;3.75;100.00
16255;BME280;8235;52.198;9.904;2023-12-14T03:19:25;100222.84;;;3.75;100.00
16255;BME280;8235;52.198;9.904;2023-12-14T03:21:52;100215.94;;;3.72;100.00
16255;BME280;8235;52.198;9.904;2023-12-14T03:24:18;100227.31;;;3.73;100.00
16255;BME280;8235;52.198;9.904;2023-12-14T03:26:45;100219.53;;;3.70;100.00
16255;BME280;8235;52.198;9.904;2023-12-14T03:29:11;100228.50;;;3.66;100.00
16255;BME280;8235;52.198;9.904;2023-12-14T03:31:39;100233.75;;;3.66;100.00
16255;BME280;8235;52.198;9.904;2023-12-14T03:34:06;100242.56;;;3.65;100.00
16255;BME280;8235;52.198;9.904;2023-12-14T03:36:32;100239.81;;;3.68;100.00
16255;BME280;8235;52.198;9.904;2023-12-14T03:38:59;100245.16;;;3.66;100.00
16255;BME280;8235;52.198;9.904;2023-12-14T03:41:25;100241.72;;;3.64;100.00
16255;BME280;8235;52.198;9.904;2023-12-14T03:43:52;100245.31;;;3.62;100.00
16255;BME280;8235;52.198;9.904;2023-12-14T03:46:18;100251.50;;;3.61;100.00
16255;BME280;8235;52.198;9.904;2023-12-14T03:48:47;100258.69;;;3.57;100.00
16255;BME280;8235;52.198;9.904;2023-12-14T03:51:13;100265.75;;;3.57;100.00
16255;BME280;8235;52.198;9.904;2023-12-14T03:53:40;100268.31;;;3.58;100.00
16255;BME280;8235;52.198;9.904;2023-12-14T03:56:07;100276.97;;;3.60;100.00
16255;BME280;8235;52.198;9.904;2023-12-14T03:58:34;100272.72;;;3.58;100.00
16255;BME280;8235;52.198;9.904;2023-12-14T04:01:01;100277.13;;;3.57;100.00
16255;BME280;8235;52.198;9.904;2023-12-14T04:03:27;100273.59;;;3.58;100.00
16255;BME280;8235;52.198;9.904;2023-12-14T04:05:55;100271.72;;;3.60;100.00
16255;BME280;8235;52.198;9.904;2023-12-14T04:08:21;100276.28;;;3.57;100.00
16255;BME280;8235;52.198;9.904;2023-12-14T04:10:48;100276.41;;;3.54;100.00
16255;BME280;8235;52.198;9.904;2023-12-14T04:13:14;100278.97;;;3.55;100.00
16255;BME280;8235;52.198;9.904;2023-12-14T04:15:41;100281.66;;;3.54;100.00
16255;BME280;8235;52.198;9.904;2023-12-14T04:18:08;100287.84;;;3.53;100.00
16255;BME280;8235;52.198;9.904;2023-12-14T04:20:34;100294.81;;;3.54;100.00
16255;BME280;8235;52.198;9.904;2023-12-14T04:23:02;100301.00;;;3.53;100.00
16255;BME280;8235;52.198;9.904;2023-12-14T04:25:29;100306.34;;;3.51;100.00
16255;BME280;8235;52.198;9.904;2023-12-14T04:27:55;100312.50;;;3.50;100.00
16255;BME280;8235;52.198;9.904;2023-12-14T04:30:22;100316.00;;;3.51;100.00
16255;BME280;8235;52.198;9.904;2023-12-14T04:32:48;100329.97;;;3.53;100.00
16255;BME280;8235;52.198;9.904;2023-12-14T04:35:14;100327.34;;;3.53;100.00
16255;BME280;8235;52.198;9.904;2023-12-14T04:37:41;100335.19;;;3.54;100.00
16255;BME280;8235;52.198;9.904;2023-12-14T04:40:10;100335.19;;;3.54;100.00
16255;BME280;8235;52.198;9.904;2023-12-14T04:42:36;100341.31;;;3.55;100.00
16255;BME280;8235;52.198;9.904;2023-12-14T04:45:04;100342.16;;;3.55;100.00
16255;BME280;8235;52.198;9.904;2023-12-14T04:47:30;100351.72;;;3.58;100.00
16255;BME280;8235;52.198;9.904;2023-12-14T04:49:57;100357.84;;;3.58;100.00
16255;BME280;8235;52.198;9.904;2023-12-14T04:52:23;100355.28;;;3.57;100.00
16255;BME280;8235;52.198;9.904;2023-12-14T04:54:50;100361.44;;;3.56;100.00
16255;BME280;8235;52.198;9.904;2023-12-14T04:57:17;100357.09;;;3.55;100.00
16255;BME280;8235;52.198;9.904;2023-12-14T04:59:44;100359.72;;;3.55;100.00
16255;BME280;8235;52.198;9.904;2023-12-14T05:02:11;100370.16;;;3.58;100.00
16255;BME280;8235;52.198;9.904;2023-12-14T05:04:37;100374.56;;;3.57;100.00
16255;BME280;8235;52.198;9.904;2023-12-14T05:07:04;100373.69;;;3.57;100.00
16255;BME280;8235;52.198;9.904;2023-12-14T05:09:31;100367.69;;;3.53;100.00
16255;BME280;8235;52.198;9.904;2023-12-14T05:11:57;100385.25;;;3.53;100.00
16255;BME280;8235;52.198;9.904;2023-12-14T05:14:25;100388.81;;;3.52;100.00
16255;BME280;8235;52.198;9.904;2023-12-14T05:16:54;100386.34;;;3.47;100.00
16255;BME280;8235;52.198;9.904;2023-12-14T05:19:20;100403.06;;;3.46;100.00
16255;BME280;8235;52.198;9.904;2023-12-14T05:21:47;100397.78;;;3.46;100.00
16255;BME280;8235;52.198;9.904;2023-12-14T05:24:13;100393.50;;;3.43;100.00
16255;BME280;8235;52.198;9.904;2023-12-14T05:26:39;100405.84;;;3.41;100.00
16255;BME280;8235;52.198;9.904;2023-12-14T05:29:06;100412.91;;;3.41;100.00
16255;BME280;8235;52.198;9.904;2023-12-14T05:31:34;100432.19;;;3.41;100.00
16255;BME280;8235;52.198;9.904;2023-12-14T05:34:00;100424.28;;;3.41;100.00
16255;BME280;8235;52.198;9.904;2023-12-14T05:36:27;100426.06;;;3.41;100.00
16255;BME280;8235;52.198;9.904;2023-12-14T05:38:54;100431.31;;;3.41;100.00
16255;BME280;8235;52.198;9.904;2023-12-14T05:41:20;100442.84;;;3.38;100.00
16255;BME280;8235;52.198;9.904;2023-12-14T05:43:47;100440.28;;;3.37;100.00
16255;BME280;8235;52.198;9.904;2023-12-14T05:46:20;100440.28;;;3.37;100.00
16255;BME280;8235;52.198;9.904;2023-12-14T05:48:48;100438.56;;;3.36;100.00
16255;BME280;8235;52.198;9.904;2023-12-14T05:51:26;100437.69;;;3.35;100.00
16255;BME280;8235;52.198;9.904;2023-12-14T05:53:52;100447.41;;;3.33;100.00
16255;BME280;8235;52.198;9.904;2023-12-14T05:56:19;100449.19;;;3.33;100.00
16255;BME280;8235;52.198;9.904;2023-12-14T05:58:45;100452.78;;;3.30;100.00
16255;BME280;8235;52.198;9.904;2023-12-14T06:01:11;100456.28;;;3.31;100.00
16255;BME280;8235;52.198;9.904;2023-12-14T06:03:38;100449.25;;;3.31;100.00
16255;BME280;8235;52.198;9.904;2023-12-14T06:06:06;100461.50;;;3.32;100.00
16255;BME280;8235;52.198;9.904;2023-12-14T06:08:33;100458.69;;;3.37;100.00
16255;BME280;8235;52.198;9.904;2023-12-14T06:10:59;100473.53;;;3.39;100.00
16255;BME280;8235;52.198;9.904;2023-12-14T06:13:26;100476.22;;;3.38;100.00
16255;BME280;8235;52.198;9.904;2023-12-14T06:15:52;100479.72;;;3.38;100.00
16255;BME280;8235;52.198;9.904;2023-12-14T06:18:19;100477.03;;;3.40;100.00
16255;BME280;8235;52.198;9.904;2023-12-14T06:20:46;100486.56;;;3.42;100.00
16255;BME280;8235;52.198;9.904;2023-12-14T06:23:13;100490.91;;;3.43;100.00
16255;BME280;8235;52.198;9.904;2023-12-14T06:25:40;100487.31;;;3.46;100.00
16255;BME280;8235;52.198;9.904;2023-12-14T06:28:06;100486.56;;;3.42;100.00
16255;BME280;8235;52.198;9.904;2023-12-14T06:30:33;100482.16;;;3.43;100.00
16255;BME280;8235;52.198;9.904;2023-12-14T06:32:59;100492.72;;;3.41;100.00
16255;BME280;8235;52.198;9.904;2023-12-14T06:35:26;100483.13;;;3.40;100.00
16255;BME280;8235;52.198;9.904;2023-12-14T06:37:52;100482.34;;;3.38;100.00
16255;BME280;8235;52.198;9.904;2023-12-14T06:40:20;100499.97;;;3.36;100.00
16255;BME280;8235;52.198;9.904;2023-12-14T06:42:47;100506.09;;;3.37;100.00
16255;BME280;8235;52.198;9.904;2023-12-14T06:45:15;100515.75;;;3.36;100.00
16255;BME280;8235;52.198;9.904;2023-12-14T06:47:41;100513.94;;;3.38;100.00
16255;BME280;8235;52.198;9.904;2023-12-14T06:50:09;100526.28;;;3.36;100.00
16255;BME280;8235;52.198;9.904;2023-12-14T06:52:36;100521.00;;;3.36;100.00
16255;BME280;8235;52.198;9.904;2023-12-14T06:55:02;100522.84;;;3.34;100.00
16255;BME280;8235;52.198;9.904;2023-12-14T06:57:30;100523.66;;;3.36;100.00
16255;BME280;8235;52.198;9.904;2023-12-14T06:59:57;100523.66;;;3.36;100.00
16255;BME280;8235;52.198;9.904;2023-12-14T07:02:23;100535.03;;;3.37;100.00
16255;BME280;8235;52.198;9.904;2023-12-14T07:04:50;100542.06;;;3.36;100.00
16255;BME280;8235;52.198;9.904;2023-12-14T07:07:16;100554.44;;;3.34;100.00
16255;BME280;8235;52.198;9.904;2023-12-14T07:09:43;100556.16;;;3.35;100.00
16255;BME280;8235;52.198;9.904;2023-12-14T07:12:11;100563.94;;;3.38;100.00
16255;BME280;8235;52.198;9.904;2023-12-14T07:14:40;100565.66;;;3.39;100.00
16255;BME280;8235;52.198;9.904;2023-12-14T07:17:06;100574.34;;;3.41;100.00
16255;BME280;8235;52.198;9.904;2023-12-14T07:19:33;100576.91;;;3.43;100.00
16255;BME280;8235;52.198;9.904;2023-12-14T07:22:01;100580.41;;;3.43;100.00
16255;BME280;8235;52.198;9.904;2023-12-14T07:24:27;100576.00;;;3.44;100.00
16255;BME280;8235;52.198;9.904;2023-12-14T07:26:53;100581.31;;;3.42;100.00
16255;BME280;8235;52.198;9.904;2023-12-14T07:29:20;100585.69;;;3.43;100.00
16255;BME280;8235;52.198;9.904;2023-12-14T07:31:48;100588.31;;;3.43;100.00
16255;BME280;8235;52.198;9.904;2023-12-14T07:34:14;100589.16;;;3.44;100.00
16255;BME280;8235;52.198;9.904;2023-12-14T07:36:41;100604.91;;;3.45;100.00
16255;BME280;8235;52.198;9.904;2023-12-14T07:39:07;100606.63;;;3.46;100.00
16255;BME280;8235;52.198;9.904;2023-12-14T07:41:34;100607.44;;;3.48;100.00
16255;BME280;8235;52.198;9.904;2023-12-14T07:44:00;100615.34;;;3.48;100.00
16255;BME280;8235;52.198;9.904;2023-12-14T07:46:27;100616.25;;;3.47;100.00
16255;BME280;8235;52.198;9.904;2023-12-14T07:48:55;100625.03;;;3.48;100.00
16255;BME280;8235;52.198;9.904;2023-12-14T07:51:22;100633.78;;;3.48;100.00
16255;BME280;8235;52.198;9.904;2023-12-14T07:53:48;100632.00;;;3.49;100.00
16255;BME280;8235;52.198;9.904;2023-12-14T07:56:15;100640.81;;;3.48;100.00
16255;BME280;8235;52.198;9.904;2023-12-14T07:58:41;100639.97;;;3.47;100.00
16255;BME280;8235;52.198;9.904;2023-12-14T08:01:08;100646.13;;;3.46;100.00
16255;BME280;8235;52.198;9.904;2023-12-14T08:03:35;100646.19;;;3.45;100.00
16255;BME280;8235;52.198;9.904;2023-12-14T08:06:03;100651.44;;;3.45;100.00
16255;BME280;8235;52.198;9.904;2023-12-14T08:08:29;100659.34;;;3.45;100.00
16255;BME280;8235;52.198;9.904;2023-12-14T08:10:56;100662.03;;;3.43;100.00
16255;BME280;8235;52.198;9.904;2023-12-14T08:13:22;100669.03;;;3.44;100.00
16255;BME280;8235;52.198;9.904;2023-12-14T08:15:48;100672.47;;;3.46;100.00
16255;BME280;8235;52.198;9.904;2023-12-14T08:18:15;100676.81;;;3.47;100.00
16255;BME280;8235;52.198;9.904;2023-12-14T08:20:41;100685.56;;;3.48;100.00
16255;BME280;8235;52.198;9.904;2023-12-14T08:23:10;100691.81;;;3.45;100.00
16255;BME280;8235;52.198;9.904;2023-12-14T08:25:36;100695.34;;;3.44;100.00
16255;BME280;8235;52.198;9.904;2023-12-14T08:28:03;100700.56;;;3.46;100.00
16255;BME280;8235;52.198;9.904;2023-12-14T08:30:30;100701.47;;;3.45;100.00
16255;BME280;8235;52.198;9.904;2023-12-14T08:32:56;100711.09;;;3.46;100.00
16255;BME280;8235;52.198;9.904;2023-12-14T08:35:23;100710.13;;;3.48;100.00
16255;BME280;8235;52.198;9.904;2023-12-14T08:37:49;100714.50;;;3.49;100.00
16255;BME280;8235;52.198;9.904;2023-12-14T08:40:17;100709.28;;;3.48;100.00
16255;BME280;8235;52.198;9.904;2023-12-14T08:42:43;100717.22;;;3.46;100.00
16255;BME280;8235;52.198;9.904;2023-12-14T08:45:10;100718.13;;;3.45;100.00
16255;BME280;8235;52.198;9.904;2023-12-14T08:47:37;100727.84;;;3.43;100.00
16255;BME280;8235;52.198;9.904;2023-12-14T08:50:05;100729.53;;;3.46;100.00
16255;BME280;8235;52.198;9.904;2023-12-14T08:52:33;100744.38;;;3.48;100.00
16255;BME280;8235;52.198;9.904;2023-12-14T08:54:59;100749.59;;;3.50;100.00
16255;BME280;8235;52.198;9.904;2023-12-14T08:57:28;100752.22;;;3.50;100.00
16255;BME280;8235;52.198;9.904;2023-12-14T08:59:55;100759.25;;;3.49;100.00
16255;BME280;8235;52.198;9.904;2023-12-14T09:02:21;100766.34;;;3.47;100.00
16255;BME280;8235;52.198;9.904;2023-12-14T09:04:47;100772.47;;;3.48;100.00
16255;BME280;8235;52.198;9.904;2023-12-14T09:07:14;100787.44;;;3.46;100.00
16255;BME280;8235;52.198;9.904;2023-12-14T09:09:40;100785.63;;;3.48;100.00
16255;BME280;8235;52.198;9.904;2023-12-14T09:12:07;100788.25;;;3.48;100.00
16255;BME280;8235;52.198;9.904;2023-12-14T09:14:35;100796.13;;;3.49;100.00
16255;BME280;8235;52.198;9.904;2023-12-14T09:17:02;100797.84;;;3.51;100.00
16255;BME280;8235;52.198;9.904;2023-12-14T09:19:29;100803.00;;;3.54;100.00
16255;BME280;8235;52.198;9.904;2023-12-14T09:21:56;100805.75;;;3.51;100.00
16255;BME280;8235;52.198;9.904;2023-12-14T09:24:22;100809.28;;;3.49;100.00
16255;BME280;8235;52.198;9.904;2023-12-14T09:26:49;100812.72;;;3.52;100.00
16255;BME280;8235;52.198;9.904;2023-12-14T09:29:15;100818.81;;;3.54;100.00
16255;BME280;8235;52.198;9.904;2023-12-14T09:31:44;100822.34;;;3.53;100.00
16255;BME280;8235;52.198;9.904;2023-12-14T09:34:11;100828.47;;;3.53;100.00
16255;BME280;8235;52.198;9.904;2023-12-14T09:36:37;100829.34;;;3.54;100.00
16255;BME280;8235;52.198;9.904;2023-12-14T09:39:04;100831.94;;;3.55;100.00
16255;BME280;8235;52.198;9.904;2023-12-14T09:41:34;100837.25;;;3.54;100.00
16255;BME280;8235;52.198;9.904;2023-12-14T09:44:02;100836.25;;;3.58;100.00
16255;BME280;8235;52.198;9.904;2023-12-14T09:46:29;100833.53;;;3.59;100.00
16255;BME280;8235;52.198;9.904;2023-12-14T09:48:59;100836.25;;;3.58;100.00
16255;BME280;8235;52.198;9.904;2023-12-14T09:51:26;100839.75;;;3.58;100.00
16255;BME280;8235;52.198;9.904;2023-12-14T09:53:53;100839.66;;;3.60;100.00
16255;BME280;8235;52.198;9.904;2023-12-14T09:56:23;100842.31;;;3.60;100.00
16255;BME280;8235;52.198;9.904;2023-12-14T09:58:49;100835.25;;;3.60;100.00
16255;BME280;8235;52.198;9.904;2023-12-14T10:01:22;100838.66;;;3.64;100.00
16255;BME280;8235;52.198;9.904;2023-12-14T10:03:50;100838.66;;;3.64;100.00
16255;BME280;8235;52.198;9.904;2023-12-14T10:06:18;100844.75;;;3.66;100.00
16255;BME280;8235;52.198;9.904;2023-12-14T10:08:54;100845.53;;;3.69;100.00
16255;BME280;8235;52.198;9.904;2023-12-14T10:11:21;100848.09;;;3.71;100.00
16255;BME280;8235;52.198;9.904;2023-12-14T10:13:47;100858.59;;;3.72;100.00
16255;BME280;8235;52.198;9.904;2023-12-14T10:16:26;100862.03;;;3.74;100.00
16255;BME280;8235;52.198;9.904;2023-12-14T10:18:53;100869.94;;;3.74;100.00
16255;BME280;8235;52.198;9.904;2023-12-14T10:21:21;100873.44;;;3.75;100.00
16255;BME280;8235;52.198;9.904;2023-12-14T10:23:47;100868.97;;;3.77;100.00
16255;BME280;8235;52.198;9.904;2023-12-14T10:26:14;100877.63;;;3.80;100.00
16255;BME280;8235;52.198;9.904;2023-12-14T10:28:41;100877.59;;;3.82;100.00
16255;BME280;8235;52.198;9.904;2023-12-14T10:31:09;100885.50;;;3.82;100.00
16255;BME280;8235;52.198;9.904;2023-12-14T10:33:35;100888.94;;;3.84;100.00
16255;BME280;8235;52.198;9.904;2023-12-14T10:36:04;100891.53;;;3.86;100.00
16255;BME280;8235;52.198;9.904;2023-12-14T10:38:33;100903.84;;;3.85;100.00
16255;BME280;8235;52.198;9.904;2023-12-14T10:41:00;100903.84;;;3.85;100.00
16255;BME280;8235;52.198;9.904;2023-12-14T10:43:27;100902.03;;;3.87;100.00
16255;BME280;8235;52.198;9.904;2023-12-14T10:45:55;100902.88;;;3.88;100.00
16255;BME280;8235;52.198;9.904;2023-12-14T10:48:22;100903.75;;;3.88;100.00
16255;BME280;8235;52.198;9.904;2023-12-14T10:50:52;100904.63;;;3.89;100.00
16255;BME280;8235;52.198;9.904;2023-12-14T10:53:26;100905.47;;;3.89;100.00
16255;BME280;8235;52.198;9.904;2023-12-14T10:55:55;100910.69;;;3.91;100.00
16255;BME280;8235;52.198;9.904;2023-12-14T10:58:24;100911.56;;;3.91;100.00
16255;BME280;8235;52.198;9.904;2023-12-14T11:00:59;100913.34;;;3.91;100.00
16255;BME280;8235;52.198;9.904;2023-12-14T11:03:26;100923.84;;;3.92;100.00
16255;BME280;8235;52.198;9.904;2023-12-14T11:05:52;100924.69;;;3.93;100.00
16255;BME280;8235;52.198;9.904;2023-12-14T11:08:19;100921.19;;;3.92;100.00
16255;BME280;8235;52.198;9.904;2023-12-14T11:10:54;100923.88;;;3.91;100.00
16255;BME280;8235;52.198;9.904;2023-12-14T11:13:21;100937.91;;;3.91;100.00
16255;BME280;8235;52.198;9.904;2023-12-14T11:15:49;100930.06;;;3.90;100.00
16255;BME280;8235;52.198;9.904;2023-12-14T11:18:23;100932.69;;;3.90;100.00
16255;BME280;8235;52.198;9.904;2023-12-14T11:20:51;100947.69;;;3.88;100.00
16255;BME280;8235;52.198;9.904;2023-12-14T11:23:27;100950.38;;;3.86;100.00
16255;BME280;8235;52.198;9.904;2023-12-14T11:25:58;100960.03;;;3.86;100.00
16255;BME280;8235;52.198;9.904;2023-12-14T11:28:26;100953.84;;;3.87;100.00
16255;BME280;8235;52.198;9.904;2023-12-14T11:30:52;100959.09;;;3.88;100.00
16255;BME280;8235;52.198;9.904;2023-12-14T11:33:19;100957.28;;;3.90;100.00
16255;BME280;8235;52.198;9.904;2023-12-14T11:35:45;100961.59;;;3.93;100.00
16255;BME280;8235;52.198;9.904;2023-12-14T11:38:12;100966.03;;;3.91;100.00
16255;BME280;8235;52.198;9.904;2023-12-14T11:40:38;100966.09;;;3.89;100.00
16255;BME280;8235;52.198;9.904;2023-12-14T11:43:06;100966.13;;;3.88;100.00
16255;BME280;8235;52.198;9.904;2023-12-14T11:45:33;100968.75;;;3.88;100.00
16255;BME280;8235;52.198;9.904;2023-12-14T11:48:01;100972.25;;;3.88;100.00
16255;BME280;8235;52.198;9.904;2023-12-14T11:50:30;100972.25;;;3.88;100.00
16255;BME280;8235;52.198;9.904;2023-12-14T11:52:56;100973.13;;;3.89;100.00
16255;BME280;8235;52.198;9.904;2023-12-14T11:55:23;100980.13;;;3.90;100.00
16255;BME280;8235;52.198;9.904;2023-12-14T11:57:50;100980.13;;;3.90;100.00
16255;BME280;8235;52.198;9.904;2023-12-14T12:00:23;100984.47;;;3.91;100.00
16255;BME280;8235;52.198;9.904;2023-12-14T12:02:50;100987.06;;;3.92;100.00
16255;BME280;8235;52.198;9.904;2023-12-14T12:05:16;100984.44;;;3.92;100.00
16255;BME280;8235;52.198;9.904;2023-12-14T12:07:44;100986.16;;;3.93;100.00
16255;BME280;8235;52.198;9.904;2023-12-14T12:10:10;100985.22;;;3.94;100.00
16255;BME280;8235;52.198;9.904;2023-12-14T12:12:37;100990.50;;;3.94;100.00
16255;BME280;8235;52.198;9.904;2023-12-14T12:15:05;100984.44;;;3.92;100.00
16255;BME280;8235;52.198;9.904;2023-12-14T12:17:33;100989.75;;;3.91;100.00
16255;BME280;8235;52.198;9.904;2023-12-14T12:20:04;100996.84;;;3.89;100.00
16255;BME280;8235;52.198;9.904;2023-12-14T12:22:31;100994.19;;;3.89;100.00
16255;BME280;8235;52.198;9.904;2023-12-14T12:24:57;101008.28;;;3.88;100.00
16255;BME280;8235;52.198;9.904;2023-12-14T12:27:24;100999.44;;;3.90;100.00
16255;BME280;8235;52.198;9.904;2023-12-14T12:29:50;101002.06;;;3.90;100.00
16255;BME280;8235;52.198;9.904;2023-12-14T12:32:19;101006.44;;;3.91;100.00
16255;BME280;8235;52.198;9.904;2023-12-14T12:34:47;101009.88;;;3.93;100.00
16255;BME280;8235;52.198;9.904;2023-12-14T12:37:13;101014.22;;;3.94;100.00
16255;BME280;8235;52.198;9.904;2023-12-14T12:39:40;101017.78;;;3.93;100.00
16255;BME280;8235;52.198;9.904;2023-12-14T12:42:06;101014.22;;;3.94;100.00
16255;BME280;8235;52.198;9.904;2023-12-14T12:44:33;101016.84;;;3.94;100.00
16255;BME280;8235;52.198;9.904;2023-12-14T12:47:00;101016.00;;;3.94;100.00
16255;BME280;8235;52.198;9.904;2023-12-14T12:49:26;101022.19;;;3.93;100.00
16255;BME280;8235;52.198;9.904;2023-12-14T12:51:54;101011.69;;;3.91;100.00
16255;BME280;8235;52.198;9.904;2023-12-14T12:54:21;101018.66;;;3.94;100.00
16255;BME280;8235;52.198;9.904;2023-12-14T12:56:47;101018.66;;;3.94;100.00
16255;BME280;8235;52.198;9.904;2023-12-14T12:59:14;101025.69;;;3.93;100.00